South Bend, IN

8:20 PM EDT on October 31, 2014 (GMT -0400)
La Porte Municipal | Change Station
CLOSE
Current Station
Airport
Location: La Porte,
Elevation: 810 ft
Nearby Weather Stations

Elev 810 ft 41.57 °N, 86.73 °W | Updated 5 minutes ago

Overcast
Overcast
36 °F
Feels Like 27 °F
N
15
Wind Variable Wind from NNE
Gusts 20 mph

Today
High -- | Low -- °F
--% Chance of Precip.
Yesterday
High -- | Low -- °F
Precip. -- in
8:15 AM 6:40 PM
First Quarter, 60% visible
Pressure 30.22 in
Visibility 10.0 miles
Clouds Mostly Cloudy 3300 ft
Overcast 4100 ft
Windchill 27 °F
Dew Point 30 °F
Humidity 79%
Rainfall 0.66 in
Snow Depth Not available.
UV 0 out of 12
Pollen .10 out of 12
Air Quality Not available.
Flu Activity Not available.
METAR KPPO 010015Z AUTO 03013G17KT 10SM -SN BKN033 OVC041 02/M01 A3022 RMK AO2 T00221011

More Conditions Fewer Conditions

Pressure 30.22 in
Visibility 10.0 miles
Clouds Mostly Cloudy 3300 ft
Overcast 4100 ft
Windchill 27 °F
Dew Point 30 °F
Humidity 79%
Rainfall 0.66 in
Snow Depth Not available.
UV 0 out of 12
Pollen .10 out of 12
Air Quality Not available.
Flu Activity Not available.
METAR KPPO 010015Z AUTO 03013G17KT 10SM -SN BKN033 OVC041 02/M01 A3022 RMK AO2 T00221011

More Conditions Fewer Conditions

10-Day Weather Forecast

Almanac

Astronomy

Oct. 31, 2014 Rise Set
Actual Time
Civil Twilight
Nautical Twilight
Astronomical Twilight
Moon
Length of Visible Light
Length of Day
Tomorrow will be .
, % of the Moon is Illuminated

Today's Extremes

State Highs State Lows

Community

WunderPhotos

Upload Photos

1,766,792 photos uploaded!

WunderBlogs® & News

Nearby

Air Quality

  Air Quality AQ Index Pollutant
Not available.

Snow Depth

Station Depth Elevation

Earthquake Activity

City Distance Mag. Time & Date
Minimum magnitude displayed is 2.5.

Coastal Water Temperatures

Place Temperature

Nearby Weather Stations